Time;durP1;ratioP1;P1;durP2;ratioP2;P2;SDS_P1;SDS_P2;PMS_P1;PMS_P2;Temp;Humidity;BMP_temperature;BMP_pressure;BME280_temperature;BME280_humidity;BME280_pressure;Samples;Min_cycle;Max_cycle;Signal;HPM_P1;HPM_P2
2021/09/11 00:00:18;;;;;;;;;;;21.20;72.80;;;;;;5041635;28;1930;-79
2021/09/11 00:02:44;;;;;;;;;;;21.20;72.80;;;;;;5033245;28;1337;-79
2021/09/11 00:05:09;;;;;;;;;;;21.20;72.80;;;;;;5033136;28;1253;-79
2021/09/11 00:07:35;;;;;;;;;;;21.20;72.80;;;;;;5062165;28;1298;-80
2021/09/11 00:10:00;;;;;;;;;;;21.20;72.80;;;;;;5034288;28;1301;-79
2021/09/11 00:12:26;;;;;;;;;;;21.20;72.80;;;;;;5043069;28;1257;-79
2021/09/11 00:14:51;;;;;;;;;;;21.20;72.80;;;;;;5031487;28;1294;-79
2021/09/11 00:17:24;;;;;;;;;;;21.20;72.80;;;;;;5039665;28;1163;-77
2021/09/11 00:20:11;;;;;;;;;;;21.20;72.90;;;;;;5054059;28;1902;-77
2021/09/11 00:22:56;;;;;;;;;;;21.20;72.90;;;;;;5050905;28;995;-78
2021/09/11 00:25:22;;;;;;;;;;;21.20;72.80;;;;;;5025551;28;1288;-78
2021/09/11 00:27:47;;;;;;;;;;;21.20;72.80;;;;;;5022047;28;1201;-79
2021/09/11 00:30:13;;;;;;;;;;;21.20;72.90;;;;;;5038230;28;1164;-78
2021/09/11 00:32:42;;;;;;;;;;;21.20;72.80;;;;;;5054966;28;1037;-78
2021/09/11 00:35:09;;;;;;;;;;;21.20;72.90;;;;;;5042175;28;1245;-79
2021/09/11 00:37:35;;;;;;;;;;;21.20;72.90;;;;;;5041896;28;1246;-79
2021/09/11 00:40:00;;;;;;;;;;;21.20;72.90;;;;;;5071786;28;1910;-78
2021/09/11 00:42:25;;;;;;;;;;;21.20;72.90;;;;;;5041579;28;1028;-78
2021/09/11 00:44:51;;;;;;;;;;;21.20;72.90;;;;;;5024521;28;1268;-79
2021/09/11 00:47:16;;;;;;;;;;;21.20;72.90;;;;;;5024347;28;991;-78
2021/09/11 00:49:42;;;;;;;;;;;21.20;72.90;;;;;;5051637;28;784;-78
2021/09/11 00:52:07;;;;;;;;;;;21.20;72.90;;;;;;5039529;28;876;-79
2021/09/11 00:54:33;;;;;;;;;;;21.20;72.90;;;;;;5045452;28;1296;-81
2021/09/11 00:56:58;;;;;;;;;;;21.20;72.90;;;;;;5050950;28;1277;-81
2021/09/11 00:59:24;;;;;;;;;;;21.20;72.90;;;;;;5046425;28;1964;-81
2021/09/11 01:01:49;;;;;;;;;;;21.20;72.90;;;;;;5061783;28;1062;-81
2021/09/11 01:04:14;;;;;;;;;;;21.20;72.90;;;;;;5044683;28;1288;-81
2021/09/11 01:06:40;;;;;;;;;;;21.20;72.90;;;;;;5059388;28;1009;-80
2021/09/11 01:09:05;;;;;;;;;;;21.20;72.90;;;;;;5034495;28;1321;-81
2021/09/11 01:11:31;;;;;;;;;;;21.20;72.90;;;;;;5037644;28;1121;-80
2021/09/11 01:13:58;;;;;;;;;;;21.20;72.90;;;;;;5050051;28;1357;-78
2021/09/11 01:16:23;;;;;;;;;;;21.20;72.90;;;;;;5046567;28;1175;-79
2021/09/11 01:18:48;;;;;;;;;;;21.20;72.90;;;;;;5039997;28;1902;-79
2021/09/11 01:21:14;;;;;;;;;;;21.20;72.90;;;;;;5060939;28;1008;-78
2021/09/11 01:23:40;;;;;;;;;;;21.20;72.90;;;;;;5053199;28;969;-78
2021/09/11 01:26:06;;;;;;;;;;;21.20;72.90;;;;;;5053358;28;1553;-78
2021/09/11 01:28:32;;;;;;;;;;;21.20;72.90;;;;;;5029777;28;1336;-76
2021/09/11 01:30:57;;;;;;;;;;;21.20;72.90;;;;;;5034577;28;1156;-76
2021/09/11 01:33:24;;;;;;;;;;;21.20;72.90;;;;;;5036020;28;1181;-80
2021/09/11 01:35:52;;;;;;;;;;;21.20;72.90;;;;;;5024440;28;1290;-80
2021/09/11 01:38:17;;;;;;;;;;;21.20;72.90;;;;;;5029316;28;1910;-80
2021/09/11 01:40:42;;;;;;;;;;;21.20;72.90;;;;;;5044123;28;1188;-79
2021/09/11 01:43:08;;;;;;;;;;;21.20;72.90;;;;;;5029876;28;1207;-80
2021/09/11 01:45:33;;;;;;;;;;;21.20;72.90;;;;;;5034386;28;1288;-78
2021/09/11 01:47:59;;;;;;;;;;;21.20;72.90;;;;;;5055102;28;938;-78
2021/09/11 01:50:24;;;;;;;;;;;21.20;72.90;;;;;;5037515;28;867;-76
2021/09/11 01:52:50;;;;;;;;;;;21.20;73.00;;;;;;5030849;28;1245;-76
2021/09/11 01:55:15;;;;;;;;;;;21.20;72.90;;;;;;5047882;28;1333;-79
2021/09/11 01:57:42;;;;;;;;;;;21.20;73.00;;;;;;5033670;28;1249;-79
2021/09/11 02:00:07;;;;;;;;;;;21.20;73.00;;;;;;5029614;28;1890;-77
2021/09/11 02:02:33;;;;;;;;;;;21.20;73.00;;;;;;5052778;28;1315;-78
2021/09/11 02:04:58;;;;;;;;;;;21.20;73.00;;;;;;5051111;28;1262;-78
2021/09/11 02:07:24;;;;;;;;;;;21.20;73.00;;;;;;5027376;28;966;-78
2021/09/11 02:09:49;;;;;;;;;;;21.20;73.00;;;;;;5044718;28;1037;-78
2021/09/11 02:12:14;;;;;;;;;;;21.20;73.00;;;;;;5051744;28;1073;-78
2021/09/11 02:14:40;;;;;;;;;;;21.20;73.00;;;;;;5069462;28;1360;-78
2021/09/11 02:17:05;;;;;;;;;;;21.20;73.00;;;;;;5044639;28;1088;-78
2021/09/11 02:19:31;;;;;;;;;;;21.20;73.00;;;;;;5025323;28;1894;-78
2021/09/11 02:21:57;;;;;;;;;;;21.10;73.00;;;;;;5072020;28;899;-79
2021/09/11 02:24:22;;;;;;;;;;;21.20;73.00;;;;;;5040798;28;1332;-78
2021/09/11 02:26:47;;;;;;;;;;;21.20;73.00;;;;;;5037491;28;1191;-77
2021/09/11 02:29:13;;;;;;;;;;;21.10;72.90;;;;;;5055760;28;1021;-78
2021/09/11 02:31:38;;;;;;;;;;;21.20;73.00;;;;;;5057411;28;1388;-78
2021/09/11 02:34:04;;;;;;;;;;;21.20;73.00;;;;;;5025644;28;1213;-78
2021/09/11 02:36:29;;;;;;;;;;;21.20;73.00;;;;;;5036700;28;1172;-78
2021/09/11 02:38:54;;;;;;;;;;;21.10;73.00;;;;;;5037517;28;1887;-78
2021/09/11 02:41:20;;;;;;;;;;;21.10;73.00;;;;;;5056935;28;1128;-78
2021/09/11 02:43:45;;;;;;;;;;;21.20;73.00;;;;;;5045745;28;1186;-78
2021/09/11 02:46:11;;;;;;;;;;;21.20;73.00;;;;;;5037049;28;1124;-78
2021/09/11 02:48:36;;;;;;;;;;;21.10;73.00;;;;;;5017980;28;1257;-79
2021/09/11 02:51:02;;;;;;;;;;;21.10;73.00;;;;;;5035969;28;1334;-78
2021/09/11 02:53:27;;;;;;;;;;;21.10;73.00;;;;;;5017704;28;1140;-78
2021/09/11 02:55:53;;;;;;;;;;;21.10;73.00;;;;;;5044803;28;1367;-78
2021/09/11 02:58:22;;;;;;;;;;;21.20;73.00;;;;;;5037662;28;1914;-77
2021/09/11 03:00:48;;;;;;;;;;;21.10;73.00;;;;;;5074226;28;1072;-78
2021/09/11 03:03:13;;;;;;;;;;;21.20;73.10;;;;;;5063208;28;1138;-78
2021/09/11 03:05:39;;;;;;;;;;;21.10;73.00;;;;;;5037068;28;1287;-78
2021/09/11 03:08:04;;;;;;;;;;;21.10;73.00;;;;;;5037318;28;1069;-78
2021/09/11 03:10:30;;;;;;;;;;;21.10;73.00;;;;;;5038028;28;1219;-78
2021/09/11 03:12:56;;;;;;;;;;;21.20;73.00;;;;;;5033353;28;1132;-78
2021/09/11 03:15:21;;;;;;;;;;;21.10;73.00;;;;;;5057056;28;1278;-78
2021/09/11 03:17:47;;;;;;;;;;;21.20;73.10;;;;;;5025895;28;1133;-78
2021/09/11 03:20:12;;;;;;;;;;;21.10;73.00;;;;;;5035830;28;1954;-78
2021/09/11 03:22:38;;;;;;;;;;;21.10;73.00;;;;;;5054781;28;1132;-78
2021/09/11 03:25:03;;;;;;;;;;;21.10;73.00;;;;;;5036666;28;1445;-76
2021/09/11 03:27:28;;;;;;;;;;;21.20;73.10;;;;;;5052925;28;1154;-76
2021/09/11 03:29:54;;;;;;;;;;;21.20;73.10;;;;;;5039127;28;1101;-76
2021/09/11 03:32:19;;;;;;;;;;;21.10;73.80;;;;;;5061996;28;1099;-76
2021/09/11 03:34:45;;;;;;;;;;;21.10;73.00;;;;;;5052670;28;1341;-76
2021/09/11 03:37:10;;;;;;;;;;;21.10;73.10;;;;;;5034493;28;1085;-76
2021/09/11 03:39:36;;;;;;;;;;;21.20;73.10;;;;;;5070155;28;1969;-76
2021/09/11 03:42:01;;;;;;;;;;;21.10;73.10;;;;;;5044223;28;1083;-76
2021/09/11 03:44:26;;;;;;;;;;;21.20;73.10;;;;;;5022093;28;1288;-76
2021/09/11 03:46:52;;;;;;;;;;;21.10;73.10;;;;;;5037800;28;1171;-76
2021/09/11 03:49:17;;;;;;;;;;;21.10;73.10;;;;;;5068832;28;1139;-76
2021/09/11 03:51:43;;;;;;;;;;;21.10;73.00;;;;;;5034817;28;1073;-76
2021/09/11 03:54:08;;;;;;;;;;;21.10;73.00;;;;;;5052600;28;1290;-76
2021/09/11 03:56:34;;;;;;;;;;;21.10;73.10;;;;;;5034454;28;1208;-76
2021/09/11 03:58:59;;;;;;;;;;;21.10;73.10;;;;;;5034613;28;1906;-76
2021/09/11 04:01:25;;;;;;;;;;;21.20;73.10;;;;;;5034693;28;1069;-76
2021/09/11 04:03:50;;;;;;;;;;;21.10;73.10;;;;;;5051297;28;1325;-76
2021/09/11 04:06:15;;;;;;;;;;;21.10;73.10;;;;;;5054294;28;1083;-76
2021/09/11 04:08:41;;;;;;;;;;;21.20;73.10;;;;;;5021367;28;1069;-76
2021/09/11 04:11:06;;;;;;;;;;;21.10;73.10;;;;;;5034645;28;1132;-76
2021/09/11 04:13:35;;;;;;;;;;;21.10;73.10;;;;;;5017657;28;1144;-76
2021/09/11 04:16:00;;;;;;;;;;;21.10;73.10;;;;;;5017774;28;1608;-76
2021/09/11 04:18:26;;;;;;;;;;;21.10;73.10;;;;;;5050886;28;1906;-76
2021/09/11 04:20:51;;;;;;;;;;;21.10;73.10;;;;;;5054377;28;1068;-76
2021/09/11 04:23:16;;;;;;;;;;;21.10;73.10;;;;;;5072733;28;1123;-76
2021/09/11 04:25:42;;;;;;;;;;;21.10;73.10;;;;;;5027362;28;1281;-76
2021/09/11 04:28:07;;;;;;;;;;;21.10;73.10;;;;;;5020968;28;1135;-77
2021/09/11 04:30:33;;;;;;;;;;;21.10;73.10;;;;;;5034675;28;1068;-77
2021/09/11 04:32:58;;;;;;;;;;;21.10;73.10;;;;;;5016198;28;1081;-76
2021/09/11 04:35:24;;;;;;;;;;;21.10;73.10;;;;;;5034334;28;1291;-76
2021/09/11 04:37:49;;;;;;;;;;;21.10;73.10;;;;;;5034039;28;1112;-76
2021/09/11 04:40:14;;;;;;;;;;;21.10;73.10;;;;;;5034306;28;1981;-76
2021/09/11 04:42:40;;;;;;;;;;;21.10;73.10;;;;;;5032583;28;1120;-75
2021/09/11 04:45:06;;;;;;;;;;;21.10;73.10;;;;;;5054027;28;1295;-77
2021/09/11 04:47:31;;;;;;;;;;;21.10;73.10;;;;;;5020773;28;1287;-77
2021/09/11 04:49:56;;;;;;;;;;;21.10;73.10;;;;;;5045979;28;942;-76
2021/09/11 04:52:22;;;;;;;;;;;21.10;73.10;;;;;;5036596;28;1200;-76
2021/09/11 04:54:47;;;;;;;;;;;21.10;73.10;;;;;;5074027;28;1228;-76
2021/09/11 04:57:13;;;;;;;;;;;21.10;73.10;;;;;;5039866;28;1124;-76
2021/09/11 04:59:38;;;;;;;;;;;21.10;73.20;;;;;;5057566;28;1971;-76
2021/09/11 05:02:04;;;;;;;;;;;21.10;73.20;;;;;;5042183;28;1068;-76
2021/09/11 05:04:29;;;;;;;;;;;21.10;73.20;;;;;;5055856;28;1355;-76
2021/09/11 05:06:55;;;;;;;;;;;21.10;73.20;;;;;;5052281;28;1073;-76
2021/09/11 05:09:20;;;;;;;;;;;21.10;73.20;;;;;;5057629;28;1108;-76
2021/09/11 05:11:46;;;;;;;;;;;21.10;73.10;;;;;;5057363;28;1126;-76
2021/09/11 05:14:11;;;;;;;;;;;21.10;73.20;;;;;;5049045;28;1386;-76
2021/09/11 05:16:37;;;;;;;;;;;21.10;73.20;;;;;;5054919;28;1155;-76
2021/09/11 05:19:02;;;;;;;;;;;21.10;73.20;;;;;;5055315;28;1971;-76
2021/09/11 05:21:28;;;;;;;;;;;21.10;73.20;;;;;;5069920;28;1155;-76
2021/09/11 05:23:53;;;;;;;;;;;21.10;73.20;;;;;;5052609;28;1310;-76
2021/09/11 05:26:18;;;;;;;;;;;21.10;73.20;;;;;;5054888;28;1175;-76
2021/09/11 05:28:44;;;;;;;;;;;21.10;73.20;;;;;;5054907;28;1108;-76
2021/09/11 05:31:09;;;;;;;;;;;21.10;73.20;;;;;;5034571;28;1000;-76
2021/09/11 05:33:35;;;;;;;;;;;21.10;73.20;;;;;;5067893;28;1055;-76
2021/09/11 05:36:00;;;;;;;;;;;21.10;73.20;;;;;;5054525;28;1178;-76
2021/09/11 05:38:26;;;;;;;;;;;21.10;73.20;;;;;;5054857;28;1914;-76
2021/09/11 05:40:51;;;;;;;;;;;21.10;73.20;;;;;;5068375;28;1127;-76
2021/09/11 05:43:16;;;;;;;;;;;21.20;73.20;;;;;;5056720;28;1176;-76
2021/09/11 05:45:42;;;;;;;;;;;21.10;73.20;;;;;;5043151;28;1336;-76
2021/09/11 05:48:07;;;;;;;;;;;21.10;73.20;;;;;;5054650;28;1135;-76
2021/09/11 05:50:33;;;;;;;;;;;21.10;73.20;;;;;;5054726;28;1256;-76
2021/09/11 05:52:58;;;;;;;;;;;21.10;73.20;;;;;;5027723;28;1259;-76
2021/09/11 05:55:24;;;;;;;;;;;21.10;73.20;;;;;;5067959;28;1265;-76
2021/09/11 05:57:49;;;;;;;;;;;21.10;73.20;;;;;;5036128;28;1273;-76
2021/09/11 06:00:14;;;;;;;;;;;21.10;73.20;;;;;;5054197;28;1951;-76
2021/09/11 06:02:40;;;;;;;;;;;21.10;73.20;;;;;;5036579;28;1076;-76
2021/09/11 06:05:05;;;;;;;;;;;21.10;73.20;;;;;;5036656;28;1432;-76
2021/09/11 06:07:31;;;;;;;;;;;21.10;73.20;;;;;;5056168;28;1155;-76
2021/09/11 06:09:56;;;;;;;;;;;21.10;73.20;;;;;;5023014;28;1196;-76
2021/09/11 06:12:22;;;;;;;;;;;21.20;73.30;;;;;;5036168;28;1077;-73
2021/09/11 06:14:49;;;;;;;;;;;21.10;73.30;;;;;;5054018;28;1264;-73
2021/09/11 06:17:14;;;;;;;;;;;21.10;74.40;;;;;;5054018;28;1001;-73
2021/09/11 06:19:40;;;;;;;;;;;21.10;74.90;;;;;;5036215;28;1906;-73
2021/09/11 06:22:05;;;;;;;;;;;21.10;75.40;;;;;;5016186;28;1132;-73
2021/09/11 06:24:30;;;;;;;;;;;21.20;75.30;;;;;;5042606;28;1417;-73
2021/09/11 06:26:56;;;;;;;;;;;21.10;75.40;;;;;;5035351;28;1836;-71
2021/09/11 06:29:21;;;;;;;;;;;21.10;75.40;;;;;;5016057;28;1669;-72
2021/09/11 06:31:47;;;;;;;;;;;21.10;75.40;;;;;;5041389;28;1309;-70
2021/09/11 06:34:12;;;;;;;;;;;21.10;75.30;;;;;;5052802;28;1369;-71
2021/09/11 06:36:38;;;;;;;;;;;21.10;75.40;;;;;;5052416;28;1295;-71
2021/09/11 06:39:03;;;;;;;;;;;21.10;75.50;;;;;;5052634;28;1967;-72
2021/09/11 06:41:29;;;;;;;;;;;21.10;75.50;;;;;;5034453;28;1279;-71
2021/09/11 06:43:54;;;;;;;;;;;21.10;75.50;;;;;;5052686;28;1271;-70
2021/09/11 06:46:19;;;;;;;;;;;21.10;75.60;;;;;;5034439;28;1348;-69
2021/09/11 06:48:45;;;;;;;;;;;21.10;75.70;;;;;;5034792;28;1316;-69
2021/09/11 06:51:11;;;;;;;;;;;21.10;75.50;;;;;;5052454;28;1219;-69
2021/09/11 06:53:36;;;;;;;;;;;21.10;75.60;;;;;;5052691;28;1278;-70
2021/09/11 06:56:01;;;;;;;;;;;21.10;75.70;;;;;;5033884;28;1275;-70
2021/09/11 06:58:27;;;;;;;;;;;21.10;75.60;;;;;;5034840;28;1909;-73
2021/09/11 07:00:52;;;;;;;;;;;21.10;75.60;;;;;;5041648;28;1366;-73
2021/09/11 07:03:18;;;;;;;;;;;21.10;75.70;;;;;;5060848;28;1127;-73
2021/09/11 07:05:43;;;;;;;;;;;21.10;75.70;;;;;;5066365;28;1335;-73
2021/09/11 07:08:09;;;;;;;;;;;21.10;75.80;;;;;;5053119;28;1142;-73
2021/09/11 07:10:34;;;;;;;;;;;21.10;76.00;;;;;;5034927;28;1135;-73
2021/09/11 07:12:59;;;;;;;;;;;21.10;76.10;;;;;;5052666;28;1391;-73
2021/09/11 07:15:25;;;;;;;;;;;21.10;76.10;;;;;;5035269;28;1367;-74
2021/09/11 07:17:52;;;;;;;;;;;21.10;76.10;;;;;;5015070;28;1187;-75
2021/09/11 07:20:17;;;;;;;;;;;21.10;76.20;;;;;;5052137;28;1972;-74
2021/09/11 07:22:42;;;;;;;;;;;21.10;76.50;;;;;;5052883;28;1449;-75
2021/09/11 07:25:08;;;;;;;;;;;21.10;76.40;;;;;;5052647;28;1315;-74
2021/09/11 07:27:34;;;;;;;;;;;21.20;76.50;;;;;;5053050;28;1264;-74
2021/09/11 07:29:59;;;;;;;;;;;21.10;76.50;;;;;;5034944;28;1088;-74
2021/09/11 07:32:26;;;;;;;;;;;21.10;76.50;;;;;;5052908;28;1068;-74
2021/09/11 07:34:51;;;;;;;;;;;21.10;76.40;;;;;;5056803;28;1423;-74
2021/09/11 07:37:17;;;;;;;;;;;21.20;76.40;;;;;;5058130;28;1306;-74
2021/09/11 07:39:42;;;;;;;;;;;21.10;76.80;;;;;;5057734;28;1906;-74
2021/09/11 07:42:08;;;;;;;;;;;21.10;76.80;;;;;;5029365;28;1304;-74
2021/09/11 07:44:33;;;;;;;;;;;21.10;76.80;;;;;;5038075;28;1231;-74
2021/09/11 07:46:59;;;;;;;;;;;21.10;76.80;;;;;;5018276;28;1322;-74
2021/09/11 07:49:24;;;;;;;;;;;21.10;77.80;;;;;;5036941;28;1290;-75
2021/09/11 07:51:50;;;;;;;;;;;21.10;76.80;;;;;;5030797;28;2312;-73
2021/09/11 07:54:15;;;;;;;;;;;21.10;76.80;;;;;;5038871;28;1382;-73
2021/09/11 07:56:41;;;;;;;;;;;21.10;76.90;;;;;;5067643;28;1285;-73
2021/09/11 07:59:06;;;;;;;;;;;21.10;77.10;;;;;;5058373;28;1906;-73
2021/09/11 08:01:32;;;;;;;;;;;21.20;77.10;;;;;;5076692;28;1103;-73
2021/09/11 08:03:57;;;;;;;;;;;21.10;77.20;;;;;;5058426;28;1586;-73
2021/09/11 08:06:23;;;;;;;;;;;21.10;77.30;;;;;;5041439;28;1295;-73
2021/09/11 08:08:48;;;;;;;;;;;21.10;77.30;;;;;;5076025;28;1317;-73
2021/09/11 08:11:15;;;;;;;;;;;21.10;77.20;;;;;;5076111;28;1358;-73
2021/09/11 08:13:41;;;;;;;;;;;21.10;77.10;;;;;;5076222;28;1394;-73
2021/09/11 08:16:07;;;;;;;;;;;21.10;77.20;;;;;;5057784;28;1191;-73
2021/09/11 08:18:32;;;;;;;;;;;21.10;77.20;;;;;;5058991;28;1897;-73
2021/09/11 08:20:58;;;;;;;;;;;21.10;77.20;;;;;;5058700;28;1290;-73
2021/09/11 08:23:23;;;;;;;;;;;21.10;77.30;;;;;;5076567;28;1315;-73
2021/09/11 08:25:50;;;;;;;;;;;21.10;77.20;;;;;;5047957;28;1272;-73
2021/09/11 08:28:15;;;;;;;;;;;21.10;77.20;;;;;;5074876;28;1406;-73
2021/09/11 08:30:41;;;;;;;;;;;21.10;77.20;;;;;;5080209;28;1314;-72
2021/09/11 08:33:06;;;;;;;;;;;21.10;77.20;;;;;;5061959;28;1372;-73
2021/09/11 08:35:32;;;;;;;;;;;21.10;77.30;;;;;;5062276;28;1335;-73
2021/09/11 08:37:57;;;;;;;;;;;21.10;77.20;;;;;;5061986;28;1383;-73
2021/09/11 08:40:22;;;;;;;;;;;21.10;77.20;;;;;;5060203;28;1886;-73
2021/09/11 08:42:48;;;;;;;;;;;21.10;77.50;;;;;;5041675;28;1318;-73
2021/09/11 08:45:14;;;;;;;;;;;21.20;77.60;;;;;;5041600;28;1333;-73
2021/09/11 08:47:46;;;;;;;;;;;21.10;77.60;;;;;;5041607;28;1296;-72
2021/09/11 08:50:15;;;;;;;;;;;21.10;77.70;;;;;;5042028;28;1229;-73
2021/09/11 08:52:44;;;;;;;;;;;21.10;77.70;;;;;;5042101;28;1503;-72
2021/09/11 08:55:09;;;;;;;;;;;21.10;77.60;;;;;;5041544;28;1373;-73
2021/09/11 08:57:35;;;;;;;;;;;21.10;78.20;;;;;;5059162;28;1147;-73
2021/09/11 09:00:00;;;;;;;;;;;21.10;77.90;;;;;;5041316;28;1898;-73
2021/09/11 09:02:26;;;;;;;;;;;21.10;78.00;;;;;;5021946;28;1388;-73
2021/09/11 09:04:52;;;;;;;;;;;21.10;77.80;;;;;;5051591;28;1350;-73
2021/09/11 09:07:38;;;;;;;;;;;21.20;77.90;;;;;;5058895;28;1300;-73
2021/09/11 09:10:10;;;;;;;;;;;21.20;77.90;;;;;;5059055;28;1341;-73
2021/09/11 09:12:40;;;;;;;;;;;21.20;77.90;;;;;;5041114;28;1223;-73
2021/09/11 09:15:12;;;;;;;;;;;21.20;78.30;;;;;;5041002;28;1355;-73
2021/09/11 09:17:38;;;;;;;;;;;21.20;78.30;;;;;;5058839;28;1296;-72
2021/09/11 09:20:22;;;;;;;;;;;21.20;78.30;;;;;;5040716;28;1898;-73
2021/09/11 09:22:49;;;;;;;;;;;21.20;78.30;;;;;;5041702;28;1312;-73
2021/09/11 09:25:22;;;;;;;;;;;21.20;78.10;;;;;;5057631;28;1373;-72
2021/09/11 09:27:48;;;;;;;;;;;21.20;78.40;;;;;;5054780;28;1255;-72
2021/09/11 09:30:14;;;;;;;;;;;21.20;78.00;;;;;;5054990;28;1298;-72
2021/09/11 09:32:39;;;;;;;;;;;21.20;78.10;;;;;;5037177;28;1269;-72
2021/09/11 09:35:18;;;;;;;;;;;21.20;78.30;;;;;;5054308;28;1288;-72
2021/09/11 09:37:56;;;;;;;;;;;21.20;78.00;;;;;;5036784;28;1336;-72
2021/09/11 09:40:34;;;;;;;;;;;21.20;78.30;;;;;;5037101;28;1918;-73
2021/09/11 09:43:00;;;;;;;;;;;21.20;78.10;;;;;;5016826;28;1246;-72
2021/09/11 09:45:31;;;;;;;;;;;21.20;78.30;;;;;;5047660;28;1359;-72
2021/09/11 09:48:04;;;;;;;;;;;21.20;78.30;;;;;;5034662;28;2059;-72
2021/09/11 09:50:31;;;;;;;;;;;21.20;78.10;;;;;;5036084;28;1434;-73
2021/09/11 09:52:56;;;;;;;;;;;21.20;78.20;;;;;;5043191;28;1537;-73
2021/09/11 09:55:21;;;;;;;;;;;21.20;77.80;;;;;;5024967;28;1566;-73
2021/09/11 09:57:47;;;;;;;;;;;21.20;78.30;;;;;;5074568;28;1380;-73
2021/09/11 10:00:13;;;;;;;;;;;21.20;78.00;;;;;;5056892;28;1933;-73
2021/09/11 10:02:39;;;;;;;;;;;21.20;78.30;;;;;;5057022;28;1091;-73
2021/09/11 10:05:05;;;;;;;;;;;21.20;78.20;;;;;;5056500;28;1252;-74
2021/09/11 10:07:30;;;;;;;;;;;21.20;78.20;;;;;;5056397;28;1702;-73
2021/09/11 10:09:55;;;;;;;;;;;21.20;78.30;;;;;;5074207;28;1656;-73
2021/09/11 10:12:34;;;;;;;;;;;21.20;78.20;;;;;;5036568;28;1376;-72
2021/09/11 10:15:18;;;;;;;;;;;21.20;77.90;;;;;;5036496;28;1568;-73
2021/09/11 10:17:43;;;;;;;;;;;21.20;78.30;;;;;;5054051;28;1697;-72
2021/09/11 10:20:09;;;;;;;;;;;21.20;78.00;;;;;;5054218;28;1894;-73
2021/09/11 10:22:35;;;;;;;;;;;21.20;78.40;;;;;;5047741;28;1435;-72
2021/09/11 10:25:02;;;;;;;;;;;21.20;78.20;;;;;;5042325;28;1697;-74
2021/09/11 10:27:34;;;;;;;;;;;21.20;78.10;;;;;;5053895;28;1364;-74
2021/09/11 10:30:02;;;;;;;;;;;21.20;78.00;;;;;;5036278;28;1489;-72
2021/09/11 10:32:33;;;;;;;;;;;21.20;78.00;;;;;;5036279;28;1835;-73
2021/09/11 10:34:59;;;;;;;;;;;21.20;78.00;;;;;;5040782;28;1427;-72
2021/09/11 10:37:43;;;;;;;;;;;21.20;77.80;;;;;;5048060;28;1969;-73
2021/09/11 10:40:26;;;;;;;;;;;21.20;78.00;;;;;;5043912;28;2011;-72
2021/09/11 10:43:07;;;;;;;;;;;21.20;77.90;;;;;;5050495;28;1288;-72
2021/09/11 10:45:51;;;;;;;;;;;21.20;77.80;;;;;;5053221;28;1817;-72
2021/09/11 10:48:35;;;;;;;;;;;21.30;77.90;;;;;;5053222;28;1072;-72
2021/09/11 10:51:19;;;;;;;;;;;21.20;78.10;;;;;;5066869;28;1047;-72
2021/09/11 10:53:57;;;;;;;;;;;21.30;78.10;;;;;;5053256;28;1061;-72
2021/09/11 10:56:25;;;;;;;;;;;21.30;78.10;;;;;;5053250;28;1163;-73
2021/09/11 10:59:10;;;;;;;;;;;21.30;78.00;;;;;;5051226;28;1910;-72
2021/09/11 11:01:54;;;;;;;;;;;21.30;78.20;;;;;;5055910;28;1331;-72
2021/09/11 11:04:23;;;;;;;;;;;21.30;78.20;;;;;;5040660;28;1253;-72
2021/09/11 11:06:50;;;;;;;;;;;21.30;78.10;;;;;;5035256;28;1100;-72
2021/09/11 11:09:18;;;;;;;;;;;21.30;78.00;;;;;;5053272;28;874;-72
2021/09/11 11:11:43;;;;;;;;;;;21.30;78.00;;;;;;5053136;28;986;-73
2021/09/11 11:14:09;;;;;;;;;;;21.20;78.00;;;;;;5035271;28;1548;-72
2021/09/11 11:16:53;;;;;;;;;;;21.30;78.00;;;;;;5035426;28;2182;-73
2021/09/11 11:19:28;;;;;;;;;;;21.20;77.80;;;;;;5030883;28;2159;-75
2021/09/11 11:21:57;;;;;;;;;;;21.30;78.10;;;;;;5031469;28;1253;-74
2021/09/11 11:24:22;;;;;;;;;;;21.30;78.10;;;;;;5052674;28;1325;-74
2021/09/11 11:26:48;;;;;;;;;;;21.30;77.90;;;;;;5052651;28;1370;-74
2021/09/11 11:29:15;;;;;;;;;;;21.30;77.80;;;;;;5052685;28;1242;-74
2021/09/11 11:31:42;;;;;;;;;;;21.30;77.40;;;;;;5035196;28;1278;-74
2021/09/11 11:34:08;;;;;;;;;;;21.30;77.50;;;;;;5052964;28;1203;-74
2021/09/11 11:36:33;;;;;;;;;;;21.30;78.00;;;;;;5052532;28;1368;-74
2021/09/11 11:39:16;;;;;;;;;;;21.30;77.90;;;;;;5034903;28;1953;-74
2021/09/11 11:41:42;;;;;;;;;;;21.30;77.80;;;;;;5023360;28;1247;-74
2021/09/11 11:44:07;;;;;;;;;;;21.30;77.90;;;;;;5047979;28;1869;-74
2021/09/11 11:46:33;;;;;;;;;;;21.30;78.00;;;;;;5052413;28;1123;-74
2021/09/11 11:48:58;;;;;;;;;;;21.30;77.40;;;;;;5029979;28;1348;-74
2021/09/11 11:51:24;;;;;;;;;;;21.30;77.20;;;;;;5022905;28;1132;-74
2021/09/11 11:53:50;;;;;;;;;;;21.30;77.20;;;;;;5019110;28;1238;-74
2021/09/11 11:56:15;;;;;;;;;;;21.30;77.40;;;;;;5040542;28;1072;-74
2021/09/11 11:58:41;;;;;;;;;;;21.30;77.50;;;;;;5055640;28;1955;-74
2021/09/11 12:01:06;;;;;;;;;;;21.30;77.40;;;;;;5056906;28;1072;-74
2021/09/11 12:03:35;;;;;;;;;;;21.30;77.60;;;;;;5038768;28;1253;-74
2021/09/11 12:06:01;;;;;;;;;;;21.30;77.90;;;;;;5056392;28;1192;-74
2021/09/11 12:08:26;;;;;;;;;;;21.30;77.70;;;;;;5057990;28;1100;-74
2021/09/11 12:10:53;;;;;;;;;;;21.30;77.30;;;;;;5058493;28;1325;-74
2021/09/11 12:13:18;;;;;;;;;;;21.30;77.30;;;;;;5058604;28;1123;-74
2021/09/11 12:15:44;;;;;;;;;;;21.30;77.40;;;;;;5058334;28;1192;-74
2021/09/11 12:18:10;;;;;;;;;;;21.30;77.60;;;;;;5058340;28;1433;-74
2021/09/11 12:20:40;;;;;;;;;;;21.30;77.50;;;;;;5030270;28;1906;-74
2021/09/11 12:23:07;;;;;;;;;;;21.30;77.40;;;;;;5051704;28;1276;-74
2021/09/11 12:25:48;;;;;;;;;;;21.30;77.30;;;;;;5055717;28;1274;-74
2021/09/11 12:28:49;;;;;;;;;;;21.40;77.40;;;;;;5038319;28;1183;-74
2021/09/11 12:31:19;;;;;;;;;;;21.40;77.40;;;;;;4994388;28;1440;-74
2021/09/11 12:33:52;;;;;;;;;;;21.40;77.60;;;;;;5020639;28;1049;-73
2021/09/11 12:36:17;;;;;;;;;;;21.40;77.50;;;;;;5041830;28;1164;-73
2021/09/11 12:38:43;;;;;;;;;;;21.40;77.50;;;;;;5075974;28;1906;-73
2021/09/11 12:41:08;;;;;;;;;;;21.40;77.40;;;;;;5041341;28;1334;-72
2021/09/11 12:43:33;;;;;;;;;;;21.40;77.50;;;;;;5048240;28;1072;-73
2021/09/11 12:45:59;;;;;;;;;;;21.40;77.60;;;;;;5055541;28;1294;-73
2021/09/11 12:48:24;;;;;;;;;;;21.40;77.40;;;;;;5055479;28;1333;-73
2021/09/11 12:50:50;;;;;;;;;;;21.40;77.90;;;;;;5038146;28;1269;-73
2021/09/11 12:53:15;;;;;;;;;;;21.40;77.70;;;;;;5055620;28;1065;-72
2021/09/11 12:55:40;;;;;;;;;;;21.40;77.70;;;;;;5055222;28;1308;-72
2021/09/11 12:58:06;;;;;;;;;;;21.40;77.80;;;;;;5030657;28;1273;-72
2021/09/11 13:00:31;;;;;;;;;;;21.40;78.00;;;;;;5055094;28;1914;-72
2021/09/11 13:02:57;;;;;;;;;;;21.40;78.00;;;;;;5055555;28;1278;-72
2021/09/11 13:05:22;;;;;;;;;;;21.40;78.10;;;;;;5055362;28;1334;-72
2021/09/11 13:07:48;;;;;;;;;;;21.40;77.90;;;;;;5037394;28;1457;-73
2021/09/11 13:10:13;;;;;;;;;;;21.40;77.90;;;;;;5054391;28;1167;-72
2021/09/11 13:12:38;;;;;;;;;;;21.40;77.90;;;;;;5055516;28;1072;-72
2021/09/11 13:15:04;;;;;;;;;;;21.40;77.70;;;;;;5057187;28;1239;-73
2021/09/11 13:17:29;;;;;;;;;;;21.40;77.90;;;;;;5074913;28;1658;-73
2021/09/11 13:19:55;;;;;;;;;;;21.40;77.80;;;;;;5073330;28;1970;-73
2021/09/11 13:22:20;;;;;;;;;;;21.40;77.70;;;;;;5055182;28;1048;-73
2021/09/11 13:24:46;;;;;;;;;;;21.40;78.00;;;;;;5040250;28;1236;-73
2021/09/11 13:27:11;;;;;;;;;;;21.40;77.70;;;;;;5053500;28;1691;-74
2021/09/11 13:29:37;;;;;;;;;;;21.40;77.70;;;;;;5026789;28;1770;-72
2021/09/11 13:32:02;;;;;;;;;;;21.40;77.60;;;;;;5055360;28;1586;-72
2021/09/11 13:34:30;;;;;;;;;;;21.40;77.70;;;;;;5054910;28;1252;-72
2021/09/11 13:36:56;;;;;;;;;;;21.40;77.60;;;;;;5062830;28;847;-73
2021/09/11 13:39:21;;;;;;;;;;;21.40;77.70;;;;;;5040370;28;1910;-73
2021/09/11 13:41:47;;;;;;;;;;;21.40;77.50;;;;;;5037237;28;1111;-73
2021/09/11 13:44:12;;;;;;;;;;;21.40;77.40;;;;;;5021328;28;1341;-73
2021/09/11 13:46:39;;;;;;;;;;;21.50;77.70;;;;;;5066868;28;790;-72
2021/09/11 13:49:05;;;;;;;;;;;21.40;77.50;;;;;;5051866;28;1156;-73
2021/09/11 13:51:30;;;;;;;;;;;21.50;77.60;;;;;;5057280;28;692;-72
2021/09/11 13:53:55;;;;;;;;;;;21.50;77.60;;;;;;5072659;28;1318;-73
2021/09/11 13:56:21;;;;;;;;;;;21.50;77.70;;;;;;5036691;28;1105;-73
2021/09/11 13:58:46;;;;;;;;;;;21.40;77.60;;;;;;5054932;28;1897;-74
2021/09/11 14:01:12;;;;;;;;;;;21.40;77.60;;;;;;5036488;28;1196;-73
2021/09/11 14:03:37;;;;;;;;;;;21.40;77.50;;;;;;5036880;28;1156;-74
2021/09/11 14:06:03;;;;;;;;;;;21.40;78.20;;;;;;5054461;28;1290;-73
2021/09/11 14:08:28;;;;;;;;;;;21.40;77.90;;;;;;5054676;28;1402;-73
2021/09/11 14:10:54;;;;;;;;;;;21.40;77.60;;;;;;5036740;28;850;-73
2021/09/11 14:13:21;;;;;;;;;;;21.40;77.90;;;;;;5067742;28;1000;-74
2021/09/11 14:15:46;;;;;;;;;;;21.40;77.70;;;;;;5062746;28;1191;-73
2021/09/11 14:18:12;;;;;;;;;;;21.40;77.70;;;;;;5058954;28;1134;-73
2021/09/11 14:20:37;;;;;;;;;;;21.40;77.60;;;;;;5054401;28;1902;-73
2021/09/11 14:23:02;;;;;;;;;;;21.40;77.60;;;;;;5036882;28;831;-73
2021/09/11 14:25:28;;;;;;;;;;;21.40;77.70;;;;;;5036018;28;1343;-73
2021/09/11 14:27:53;;;;;;;;;;;21.40;77.70;;;;;;5054123;28;1080;-73